Time;durP1;ratioP1;P1;durP2;ratioP2;P2;SDS_P1;SDS_P2;PMS_P1;PMS_P2;Temp;Humidity;BMP_temperature;BMP_pressure;BME280_temperature;BME280_humidity;BME280_pressure;Samples;Min_cycle;Max_cycle;Signal;HPM_P1;HPM_P2
2020/12/18 00:00:07;;;;;;;13.05;6.37;;;;;;;2.81;87.21;98851.33;1698361;83;21155;-68
2020/12/18 00:02:36;;;;;;;15.23;4.55;;;;;;;2.83;87.12;98857.68;1698337;83;21494;-68
2020/12/18 00:05:05;;;;;;;12.63;5.30;;;;;;;2.80;87.15;98857.36;1698345;83;21595;-68
2020/12/18 00:07:34;;;;;;;18.02;6.33;;;;;;;2.77;87.27;98859.23;1698704;83;21536;-68
2020/12/18 00:10:02;;;;;;;14.43;5.53;;;;;;;2.77;87.15;98863.08;1699051;83;21138;-68
2020/12/18 00:12:30;;;;;;;12.13;5.42;;;;;;;2.73;87.40;98866.70;1698580;83;21169;-68
2020/12/18 00:14:58;;;;;;;14.23;5.72;;;;;;;2.69;87.55;98868.58;1698589;83;21261;-67
2020/12/18 00:17:26;;;;;;;13.58;5.58;;;;;;;2.68;87.51;98867.39;1698611;83;21182;-68
2020/12/18 00:19:55;;;;;;;14.45;4.97;;;;;;;2.67;87.51;98865.71;1698944;83;21194;-68
2020/12/18 00:22:24;;;;;;;17.90;5.95;;;;;;;2.68;87.42;98862.25;1698426;83;21226;-68
2020/12/18 00:24:53;;;;;;;14.07;6.50;;;;;;;2.68;87.56;98866.94;1698269;83;21620;-68
2020/12/18 00:27:21;;;;;;;11.28;4.25;;;;;;;2.64;87.79;98865.42;1698791;83;21178;-68
2020/12/18 00:29:49;;;;;;;17.62;6.00;;;;;;;2.65;87.59;98864.49;1698523;83;21574;-68
2020/12/18 00:32:17;;;;;;;14.18;5.33;;;;;;;2.67;87.70;98863.15;1698615;83;21178;-68
2020/12/18 00:34:45;;;;;;;11.05;4.80;;;;;;;2.84;92.94;98863.20;1698466;83;21567;-68
2020/12/18 00:37:13;;;;;;;10.88;5.25;;;;;;;2.92;92.37;98860.27;1698576;83;21175;-69
2020/12/18 00:39:41;;;;;;;16.00;6.20;;;;;;;2.87;89.74;98866.89;1698499;83;21158;-68
2020/12/18 00:42:09;;;;;;;13.35;4.17;;;;;;;2.86;89.11;98867.79;1698735;83;21173;-68
2020/12/18 00:44:37;;;;;;;13.93;5.35;;;;;;;2.86;88.69;98867.34;1698509;83;21221;-68
2020/12/18 00:47:05;;;;;;;14.98;5.75;;;;;;;2.84;88.26;98868.33;1698644;83;21135;-68
2020/12/18 00:49:33;;;;;;;12.15;4.58;;;;;;;2.80;88.28;98868.90;1699954;83;21633;-68
2020/12/18 00:52:01;;;;;;;12.45;5.47;;;;;;;2.79;88.08;98867.26;1706158;83;21335;-68
2020/12/18 00:54:30;;;;;;;12.05;5.17;;;;;;;2.77;88.15;98866.93;1706088;83;21257;-68
2020/12/18 00:56:58;;;;;;;15.43;6.17;;;;;;;2.77;88.08;98866.48;1705108;83;21315;-68
2020/12/18 00:59:26;;;;;;;18.45;6.08;;;;;;;2.76;88.15;98867.86;1703901;83;21169;-68
2020/12/18 01:02:04;;;;;;;16.85;6.55;;;;;;;2.74;88.15;98860.22;1703838;83;21194;-68
2020/12/18 01:04:33;;;;;;;15.68;5.30;;;;;;;2.74;88.07;98859.39;1681059;83;21202;-68
2020/12/18 01:07:02;;;;;;;21.48;5.75;;;;;;;2.74;88.00;98861.95;1682769;83;21150;-68
2020/12/18 01:09:31;;;;;;;14.00;5.85;;;;;;;2.75;88.11;98863.63;1704386;83;21186;-69
2020/12/18 01:12:01;;;;;;;13.55;4.80;;;;;;;2.75;88.05;98864.45;1703470;83;21155;-69
2020/12/18 01:14:29;;;;;;;9.53;4.70;;;;;;;2.77;87.98;98860.52;1706051;83;21308;-68
2020/12/18 01:16:58;;;;;;;12.30;4.80;;;;;;;2.78;87.94;98861.74;1682443;83;21178;-68
2020/12/18 01:19:26;;;;;;;11.95;5.03;;;;;;;2.82;87.79;98862.42;1704623;83;21185;-68
2020/12/18 01:21:54;;;;;;;9.55;5.08;;;;;;;2.84;87.65;98861.44;1703715;83;21134;-68
2020/12/18 01:24:24;;;;;;;12.00;4.30;;;;;;;2.88;87.58;98863.41;1702893;83;21119;-68
2020/12/18 01:26:54;;;;;;;12.30;4.62;;;;;;;2.91;87.47;98859.43;1703518;83;21562;-68
2020/12/18 01:29:22;;;;;;;8.18;4.05;;;;;;;2.94;87.45;98858.45;1703698;83;21209;-68
2020/12/18 01:31:53;;;;;;;9.70;4.65;;;;;;;2.95;87.37;98857.55;1703688;83;21170;-68
2020/12/18 01:34:21;;;;;;;11.30;4.83;;;;;;;3.00;87.27;98855.57;1703364;83;21376;-68
2020/12/18 01:36:49;;;;;;;18.87;5.95;;;;;;;3.04;87.20;98857.91;1703729;83;21732;-68
2020/12/18 01:39:19;;;;;;;12.03;4.97;;;;;;;3.06;86.98;98862.54;1702877;83;21248;-68
2020/12/18 01:41:47;;;;;;;11.45;5.53;;;;;;;3.09;86.93;98863.67;1703869;83;21539;-68
2020/12/18 01:44:15;;;;;;;19.70;6.42;;;;;;;3.14;86.89;98857.87;1703482;83;21181;-68
2020/12/18 01:46:46;;;;;;;14.78;4.70;;;;;;;3.19;86.70;98861.02;1703539;83;21209;-68
2020/12/18 01:49:14;;;;;;;12.37;4.05;;;;;;;3.23;86.52;98859.16;1703754;83;21179;-68
2020/12/18 01:51:46;;;;;;;12.95;5.15;;;;;;;3.24;85.91;98863.36;1706159;82;21677;-68
2020/12/18 01:54:19;;;;;;;10.32;5.00;;;;;;;3.28;86.08;98863.59;1703104;83;21605;-69
2020/12/18 01:56:49;;;;;;;17.80;5.20;;;;;;;3.32;85.95;98859.52;1703587;83;21311;-68
2020/12/18 01:59:19;;;;;;;5.72;4.25;;;;;;;3.34;85.85;98855.16;1685667;84;21193;-68
2020/12/18 02:01:59;;;;;;;14.00;4.50;;;;;;;3.45;85.91;98856.34;1780230;79;23043;-69
2020/12/18 02:04:29;;;;;;;19.62;6.15;;;;;;;3.45;85.58;98858.91;1752596;82;21576;-68
2020/12/18 02:07:00;;;;;;;15.30;5.85;;;;;;;3.45;85.40;98865.33;1753292;81;21169;-69
2020/12/18 02:09:36;;;;;;;24.50;6.90;;;;;;;3.45;85.34;98871.30;1751864;82;21148;-68
2020/12/18 02:12:06;;;;;;;15.38;4.87;;;;;;;3.40;85.05;98865.55;1753387;80;21117;-70
2020/12/18 02:14:37;;;;;;;10.65;4.75;;;;;;;3.40;85.01;98867.29;1753732;80;21691;-69
2020/12/18 02:17:05;;;;;;;13.75;5.60;;;;;;;3.37;85.06;98857.17;1753382;82;21152;-69
2020/12/18 02:19:36;;;;;;;11.73;5.40;;;;;;;3.35;85.05;98861.92;1752365;81;21167;-69
2020/12/18 02:22:37;;;;;;;14.68;6.62;;;;;;;3.32;85.01;98861.25;1753539;82;21139;-68
2020/12/18 02:25:12;;;;;;;14.03;4.75;;;;;;;3.30;85.10;98858.78;1704811;84;21161;-69
2020/12/18 02:27:41;;;;;;;19.55;7.08;;;;;;;3.28;85.16;98859.74;1704947;84;21259;-70
2020/12/18 02:30:15;;;;;;;15.08;5.42;;;;;;;3.21;85.20;98856.66;1704423;84;21160;-68
2020/12/18 02:32:45;;;;;;;18.60;6.53;;;;;;;3.10;85.64;98858.09;1692369;84;21624;-69
2020/12/18 02:35:13;;;;;;;9.95;5.20;;;;;;;3.02;86.12;98853.33;1704981;84;21176;-69
2020/12/18 02:37:42;;;;;;;20.75;6.42;;;;;;;3.04;85.75;98855.35;1704854;84;21208;-68
2020/12/18 02:40:11;;;;;;;19.00;6.28;;;;;;;2.95;86.35;98850.69;1703535;84;21743;-66
2020/12/18 02:42:54;;;;;;;9.83;4.75;;;;;;;2.87;86.58;98845.09;1676585;84;21168;-67
2020/12/18 02:45:23;;;;;;;15.88;5.85;;;;;;;2.91;86.26;98852.19;1704803;84;21332;-69
2020/12/18 02:48:10;;;;;;;14.25;5.33;;;;;;;2.92;86.17;98846.16;1704924;84;21409;-69
2020/12/18 02:50:39;;;;;;;8.73;4.50;;;;;;;2.91;86.32;98844.48;1704583;84;21284;-69
2020/12/18 02:53:35;;;;;;;12.65;5.33;;;;;;;2.88;86.32;98846.28;1705213;84;21156;-68
2020/12/18 02:56:05;;;;;;;12.40;5.12;;;;;;;2.86;86.55;98848.10;1766246;81;21643;-68
2020/12/18 02:58:35;;;;;;;17.77;5.67;;;;;;;2.88;86.51;98848.02;1755869;81;21574;-66
2020/12/18 03:01:04;;;;;;;12.53;5.42;;;;;;;2.91;86.21;98856.03;1767545;81;21563;-67
2020/12/18 03:03:32;;;;;;;13.18;6.15;;;;;;;2.94;86.21;98855.43;1767829;81;21162;-67
2020/12/18 03:06:19;;;;;;;;;;;;;;;2.93;86.34;98855.04;1770359;81;21158;-67
2020/12/18 03:08:48;;;;;;;8.75;4.92;;;;;;;2.88;86.56;98856.54;1767225;81;20160;-67
2020/12/18 03:11:16;;;;;;;16.50;5.12;;;;;;;2.88;86.52;98855.26;1767498;81;21171;-67
2020/12/18 03:13:47;;;;;;;12.28;5.55;;;;;;;2.86;86.60;98855.80;1767069;81;21151;-68
2020/12/18 03:16:16;;;;;;;15.05;5.78;;;;;;;2.72;87.22;98861.21;1766989;81;21772;-67
2020/12/18 03:18:48;;;;;;;14.58;4.65;;;;;;;2.83;86.81;98860.25;1756984;81;21321;-67
2020/12/18 03:21:17;;;;;;;14.70;5.92;;;;;;;2.81;86.94;98860.30;1766991;81;21138;-68
2020/12/18 03:24:04;;;;;;;9.05;4.15;;;;;;;2.74;87.37;98858.94;1767150;81;21296;-66
2020/12/18 03:26:51;;;;;;;16.55;5.87;;;;;;;2.76;87.07;98859.69;1766013;81;21166;-66
2020/12/18 03:29:21;;;;;;;14.47;6.30;;;;;;;2.70;87.49;98864.28;1766844;81;21268;-69
2020/12/18 03:31:50;;;;;;;16.02;5.42;;;;;;;2.71;87.35;98872.36;1767296;81;21142;-67
2020/12/18 03:34:19;;;;;;;10.13;4.95;;;;;;;2.74;87.18;98863.23;1767070;81;21309;-68
2020/12/18 03:36:52;;;;;;;10.05;5.08;;;;;;;2.76;86.97;98871.23;1767149;81;21142;-67
2020/12/18 03:39:21;;;;;;;11.83;5.05;;;;;;;2.81;86.74;98871.84;1741820;81;21154;-68
2020/12/18 03:41:53;;;;;;;9.18;5.75;;;;;;;2.84;86.53;98876.02;1766463;81;21179;-67
2020/12/18 03:44:21;;;;;;;12.70;5.33;;;;;;;2.80;86.54;98875.79;1767137;81;21150;-67
2020/12/18 03:46:50;;;;;;;11.03;5.10;;;;;;;2.85;86.32;98875.09;1767125;81;21138;-67
2020/12/18 03:49:22;;;;;;;9.78;5.10;;;;;;;2.86;86.21;98878.88;1763218;81;21288;-67
2020/12/18 03:51:52;;;;;;;12.43;6.28;;;;;;;2.86;86.20;98872.92;1766963;81;21162;-67
2020/12/18 03:54:21;;;;;;;12.40;4.80;;;;;;;2.80;86.68;98871.94;1765856;81;21604;-69
2020/12/18 03:56:51;;;;;;;13.70;5.08;;;;;;;2.88;86.40;98869.81;1761594;81;21236;-68
2020/12/18 03:59:24;;;;;;;19.85;4.40;;;;;;;2.85;86.23;98874.66;1760007;81;21164;-69
2020/12/18 04:01:53;;;;;;;16.67;6.53;;;;;;;2.93;86.07;98878.13;1755395;81;21184;-69
2020/12/18 04:04:22;;;;;;;11.83;6.17;;;;;;;2.90;86.17;98877.45;1764199;81;21172;-69
2020/12/18 04:06:51;;;;;;;8.75;5.05;;;;;;;2.96;85.97;98872.84;1764176;81;21346;-68
2020/12/18 04:09:22;;;;;;;15.40;6.35;;;;;;;2.98;85.94;98876.19;1764021;81;21129;-68
2020/12/18 04:11:51;;;;;;;8.80;4.47;;;;;;;2.97;85.65;98879.65;1762237;81;21176;-68
2020/12/18 04:14:21;;;;;;;11.97;4.58;;;;;;;2.97;85.60;98880.09;1762875;81;21565;-68
2020/12/18 04:16:51;;;;;;;14.63;5.95;;;;;;;2.98;85.71;98876.19;1761563;81;21204;-68
2020/12/18 04:19:20;;;;;;;14.50;3.92;;;;;;;2.90;85.84;98880.02;1764035;81;21314;-69
2020/12/18 04:21:48;;;;;;;8.88;3.92;;;;;;;2.92;85.73;98883.36;1764131;81;21365;-68
2020/12/18 04:24:18;;;;;;;9.73;5.33;;;;;;;2.95;85.49;98878.91;1760043;81;21711;-68
2020/12/18 04:26:47;;;;;;;7.28;3.75;;;;;;;2.88;85.44;98884.41;1764953;81;21129;-69
2020/12/18 04:29:17;;;;;;;6.50;4.65;;;;;;;2.88;85.41;98878.80;1764656;81;21310;-69
2020/12/18 04:32:07;;;;;;;10.00;4.17;;;;;;;2.89;85.48;98880.47;1727734;81;21164;-68
2020/12/18 04:34:35;;;;;;;13.05;5.45;;;;;;;2.88;85.77;98882.64;1665957;85;21176;-69
2020/12/18 04:37:11;;;;;;;10.50;5.22;;;;;;;2.86;85.88;98885.75;1665159;85;21124;-68
2020/12/18 04:39:59;;;;;;;10.55;4.45;;;;;;;2.81;86.25;98882.55;1661106;86;21145;-69
2020/12/18 04:42:51;;;;;;;12.37;7.22;;;;;;;2.86;86.23;98887.03;1665187;85;22073;-68
2020/12/18 04:45:19;;;;;;;7.92;4.37;;;;;;;2.87;86.03;98881.00;1652160;85;21612;-69
2020/12/18 04:47:51;;;;;;;14.10;5.42;;;;;;;2.86;85.88;98886.58;1630193;86;21242;-68
2020/12/18 04:50:19;;;;;;;14.58;6.12;;;;;;;2.90;85.71;98890.28;1629982;86;21620;-68
2020/12/18 04:52:49;;;;;;;14.05;5.92;;;;;;;2.83;85.88;98890.58;1649428;85;23085;-68
2020/12/18 04:55:18;;;;;;;19.73;7.17;;;;;;;2.76;86.11;98887.90;1652052;85;21188;-68
2020/12/18 04:58:06;;;;;;;15.15;5.53;;;;;;;2.62;86.82;98890.73;1652695;85;21290;-69
2020/12/18 05:00:35;;;;;;;16.25;5.03;;;;;;;2.63;86.71;98890.67;1652785;85;21179;-68
2020/12/18 05:03:17;;;;;;;15.38;7.15;;;;;;;2.66;86.65;98896.09;1650453;85;21751;-68
2020/12/18 05:05:46;;;;;;;10.53;6.25;;;;;;;2.62;86.84;98891.56;1652684;85;21179;-68
2020/12/18 05:08:16;;;;;;;19.77;6.58;;;;;;;2.58;87.11;98887.92;1652889;85;21156;-68
2020/12/18 05:10:44;;;;;;;12.75;7.28;;;;;;;2.59;87.09;98894.73;1652852;85;21188;-68
2020/12/18 05:13:14;;;;;;;12.43;6.65;;;;;;;2.59;86.97;98895.56;1650917;85;21179;-68
2020/12/18 05:15:47;;;;;;;12.63;6.67;;;;;;;2.59;87.09;98891.72;1652352;85;21305;-69
2020/12/18 05:18:17;;;;;;;16.55;5.90;;;;;;;2.59;87.12;98895.56;1649247;85;21620;-70
2020/12/18 05:20:46;;;;;;;12.23;6.03;;;;;;;2.61;87.06;98895.47;1652673;85;21171;-68
2020/12/18 05:26:24;;;;;;;17.17;6.08;;;;;;;2.66;87.04;98896.09;1653148;85;21145;-67
2020/12/18 05:29:09;;;;;;;20.60;10.08;;;;;;;2.61;87.32;98896.75;1643290;85;21187;-68
2020/12/18 05:32:03;;;;;;;14.83;5.33;;;;;;;2.61;87.65;98887.78;1803605;79;21318;-68
2020/12/18 05:34:59;;;;;;;22.37;7.10;;;;;;;2.65;87.23;98898.28;1772985;80;21601;-67
2020/12/18 05:37:57;;;;;;;24.12;7.08;;;;;;;2.59;87.60;98893.44;1725841;82;21710;-67
2020/12/18 05:40:49;;;;;;;10.95;4.75;;;;;;;2.61;87.82;98895.02;1801409;77;22653;-68
2020/12/18 05:43:25;;;;;;;14.53;6.12;;;;;;;2.63;87.44;98901.38;1805876;78;21166;-68
2020/12/18 05:45:55;;;;;;;21.70;7.45;;;;;;;2.62;87.44;98894.13;1806203;78;21075;-67
2020/12/18 05:48:41;;;;;;;21.57;7.05;;;;;;;2.59;87.76;98898.57;1826219;77;22844;-68
2020/12/18 05:54:51;;;;;;;14.33;7.00;;;;;;;2.58;87.51;98905.88;1762646;81;21141;-67
2020/12/18 05:57:19;;;;;;;14.63;5.72;;;;;;;2.57;87.98;98910.17;1701830;82;21576;-68
2020/12/18 05:59:49;;;;;;;10.45;6.00;;;;;;;2.61;87.65;98909.13;1733329;82;21195;-72
2020/12/18 06:02:23;;;;;;;16.90;6.03;;;;;;;2.60;87.82;98915.18;1694252;83;21562;-66
2020/12/18 06:05:05;;;;;;;12.95;6.12;;;;;;;2.72;87.54;98906.89;1801631;77;22202;-68
2020/12/18 06:07:42;;;;;;;13.25;6.37;;;;;;;2.68;87.58;98914.83;1802838;78;21564;-67
2020/12/18 06:10:25;;;;;;;14.45;4.90;;;;;;;2.62;87.63;98909.97;1703887;84;21169;-68
2020/12/18 06:13:11;;;;;;;;;;;;;;;2.65;87.42;98909.81;1704731;84;21606;-67
2020/12/18 06:15:57;;;;;;;14.53;6.87;;;;;;;2.67;87.25;98909.31;1594587;87;20242;-68
2020/12/18 06:18:30;;;;;;;14.33;5.78;;;;;;;2.72;87.22;98909.46;1633965;87;21151;-66
2020/12/18 06:21:02;;;;;;;9.10;5.28;;;;;;;2.74;87.10;98908.12;1627284;87;21616;-67
2020/12/18 06:23:32;;;;;;;16.60;5.17;;;;;;;2.83;86.87;98917.52;1645053;86;21696;-68
2020/12/18 06:26:17;;;;;;;9.03;5.20;;;;;;;2.93;86.68;98911.94;1780012;79;22729;-66
2020/12/18 06:29:05;;;;;;;9.03;4.83;;;;;;;2.88;86.71;98913.91;1753341;81;21211;-65
2020/12/18 06:31:35;;;;;;;9.98;5.37;;;;;;;2.87;86.99;98915.64;1750607;82;21599;-69
2020/12/18 06:34:28;;;;;;;13.05;4.45;;;;;;;3.01;86.38;98913.24;1823849;77;22663;-67
2020/12/18 06:37:07;;;;;;;13.20;5.05;;;;;;;3.03;86.26;98922.16;1757092;81;21180;-67
2020/12/18 06:40:02;;;;;;;7.93;5.03;;;;;;;2.88;86.64;98922.41;1690134;83;21229;-67
2020/12/18 06:42:35;;;;;;;12.60;5.00;;;;;;;2.99;86.37;98937.32;1670956;83;21198;-67
2020/12/18 06:45:10;;;;;;;10.50;5.97;;;;;;;3.08;86.11;98931.73;1722363;82;21143;-68
2020/12/18 06:47:57;;;;;;;11.38;5.05;;;;;;;3.12;85.75;98929.41;1730867;83;21234;-67
2020/12/18 06:50:35;;;;;;;12.93;6.12;;;;;;;3.18;85.60;98931.70;1730847;83;21147;-67
2020/12/18 06:53:21;;;;;;;9.95;5.75;;;;;;;3.13;85.46;98929.79;1730724;83;21570;-68
2020/12/18 06:55:54;;;;;;;11.83;4.62;;;;;;;3.17;85.48;98929.58;1727092;82;21372;-66
2020/12/18 06:58:33;;;;;;;11.85;5.97;;;;;;;3.19;85.42;98932.08;1730655;83;21127;-68
2020/12/18 07:01:02;;;;;;;15.35;7.55;;;;;;;3.18;85.17;98935.55;1730406;83;21320;-70
2020/12/18 07:03:39;;;;;;;16.67;6.40;;;;;;;3.04;85.33;98935.34;1730042;83;21210;-69
2020/12/18 07:06:11;;;;;;;;;;;;;;;3.07;85.43;98936.52;1732643;83;21206;-70
2020/12/18 07:08:41;;;;;;;10.98;5.97;;;;;;;2.99;85.67;98941.17;1730334;83;20426;-68
2020/12/18 07:11:14;;;;;;;13.25;6.72;;;;;;;3.00;86.40;98939.80;1730471;83;21325;-70
2020/12/18 07:13:48;;;;;;;27.85;12.00;;;;;;;3.09;86.07;98938.09;1701140;83;21622;-70
2020/12/18 07:16:26;;;;;;;21.62;7.35;;;;;;;3.13;85.72;98942.17;1730751;83;21281;-75
2020/12/18 07:18:58;;;;;;;15.63;8.05;;;;;;;3.02;87.15;98939.73;1730877;83;21335;-74
2020/12/18 07:21:27;;;;;;;20.12;8.13;;;;;;;2.95;87.42;98940.48;1730591;83;21175;-73
2020/12/18 07:23:55;;;;;;;13.43;6.00;;;;;;;2.89;86.96;98940.75;1730845;83;21277;-73
2020/12/18 07:26:23;;;;;;;11.83;5.00;;;;;;;3.00;86.91;98941.08;1730615;83;21202;-78
2020/12/18 07:28:51;;;;;;;14.28;5.85;;;;;;;3.05;86.26;98937.86;1730628;83;21575;-74
2020/12/18 07:31:27;;;;;;;11.50;4.72;;;;;;;3.02;86.10;98938.45;1730662;83;21592;-73
2020/12/18 07:34:00;;;;;;;14.73;6.30;;;;;;;3.05;86.18;98937.86;1736247;81;21563;-73
2020/12/18 07:36:30;;;;;;;15.53;6.60;;;;;;;3.06;86.40;98939.52;1746762;81;21186;-73
2020/12/18 07:38:59;;;;;;;13.80;6.05;;;;;;;3.05;86.25;98935.28;1732793;81;21139;-73
2020/12/18 07:41:33;;;;;;;13.78;6.17;;;;;;;3.10;86.23;98936.36;1734136;83;21801;-73
2020/12/18 07:44:06;;;;;;;11.10;4.85;;;;;;;3.18;85.67;98944.53;1734147;82;21135;-73
2020/12/18 07:46:36;;;;;;;11.80;5.33;;;;;;;3.08;86.08;98944.11;1740738;82;21155;-73
2020/12/18 07:49:12;;;;;;;12.13;6.30;;;;;;;3.20;85.48;98944.82;1740835;82;21253;-70
2020/12/18 07:51:40;;;;;;;;;;;;;;;3.17;85.50;98947.98;1735779;83;21197;-72
2020/12/18 07:54:09;;;;;;;18.30;9.15;;;;;;;3.18;85.58;98947.93;1740551;82;20142;-69
2020/12/18 07:56:37;;;;;;;17.40;6.55;;;;;;;3.33;85.45;98950.20;1733521;83;21520;-69
2020/12/18 07:59:08;;;;;;;15.88;6.58;;;;;;;3.37;84.91;98950.44;1740514;82;21308;-69
2020/12/18 08:01:38;;;;;;;10.93;5.20;;;;;;;3.33;84.94;98952.33;1740772;82;21602;-68
2020/12/18 08:04:12;;;;;;;10.72;6.17;;;;;;;3.35;84.61;98954.80;1733728;83;21356;-69
2020/12/18 08:06:43;;;;;;;13.10;5.55;;;;;;;3.36;84.18;98960.32;1740548;82;21147;-70
2020/12/18 08:09:16;;;;;;;14.07;5.92;;;;;;;3.37;84.67;98960.71;1740501;82;21182;-69
2020/12/18 08:11:48;;;;;;;13.65;6.28;;;;;;;3.34;85.00;98960.87;1740688;82;21351;-69
2020/12/18 08:14:17;;;;;;;13.32;5.90;;;;;;;3.45;84.48;98967.59;1703828;82;21170;-69
2020/12/18 08:16:45;;;;;;;16.23;6.92;;;;;;;3.47;84.12;98967.50;1681405;85;21236;-70
2020/12/18 08:19:13;;;;;;;14.93;7.00;;;;;;;3.41;84.75;98969.09;1681273;85;21771;-69
2020/12/18 08:31:35;;;;;;;11.35;5.05;;;;;;;3.45;84.57;98971.45;1728860;83;21270;-69
2020/12/18 08:34:20;;;;;;;15.45;5.83;;;;;;;3.57;84.15;98970.02;1710207;82;21166;-70
2020/12/18 08:36:50;;;;;;;13.78;5.00;;;;;;;3.46;85.39;98973.56;1697087;83;21206;-69
2020/12/18 08:39:19;;;;;;;12.90;5.97;;;;;;;3.52;84.40;98966.83;1725165;82;21589;-69
2020/12/18 08:41:55;;;;;;;11.40;5.30;;;;;;;3.54;84.14;98973.55;1728376;82;21214;-69
2020/12/18 08:44:49;;;;;;;12.73;6.00;;;;;;;3.56;84.47;98970.47;1700460;82;21161;-68
2020/12/18 08:47:30;;;;;;;9.43;5.50;;;;;;;3.55;84.07;98970.53;1656457;85;21120;-70
2020/12/18 08:49:59;;;;;;;9.33;5.33;;;;;;;3.47;84.24;98970.07;1656558;86;21671;-69
2020/12/18 08:52:29;;;;;;;10.93;5.03;;;;;;;3.55;84.22;98971.37;1656672;86;21208;-71
2020/12/18 08:55:08;;;;;;;7.45;2.95;;;;;;;3.66;83.79;98978.54;1656668;86;21592;-71
2020/12/18 08:57:38;;;;;;;12.65;6.37;;;;;;;3.74;83.56;98984.14;1652017;85;21644;-75
2020/12/18 09:00:22;;;;;;;10.93;4.35;;;;;;;3.78;83.27;98981.34;1656318;86;21759;-72
2020/12/18 09:03:01;;;;;;;23.60;9.55;;;;;;;3.85;83.43;98975.47;1651893;86;21493;-69
2020/12/18 09:05:36;;;;;;;14.20;5.83;;;;;;;3.69;83.36;98979.25;1650234;87;21176;-70
2020/12/18 09:08:07;;;;;;;9.00;4.93;;;;;;;3.77;83.54;98972.45;1649391;85;21219;-70
2020/12/18 09:11:03;;;;;;;15.20;3.92;;;;;;;3.88;82.99;98976.59;1656584;85;21232;-70
2020/12/18 09:13:32;;;;;;;9.03;4.62;;;;;;;3.85;83.17;98973.35;1674326;85;21631;-70
2020/12/18 09:16:29;;;;;;;15.72;5.87;;;;;;;3.85;83.40;98978.04;1652801;85;21143;-69
2020/12/18 09:18:59;;;;;;;13.58;6.00;;;;;;;3.89;82.86;98975.66;1641091;87;21552;-69
2020/12/18 09:21:30;;;;;;;13.90;5.40;;;;;;;3.91;83.35;98970.46;1640801;87;21239;-69
2020/12/18 09:23:58;;;;;;;9.75;4.08;;;;;;;3.96;82.84;98973.19;1640905;87;21266;-69
2020/12/18 09:26:29;;;;;;;12.33;3.98;;;;;;;3.98;82.69;98975.22;1640439;87;21140;-69
2020/12/18 09:28:59;;;;;;;11.63;5.20;;;;;;;3.92;82.59;98972.97;1640555;87;21202;-69
2020/12/18 09:31:28;;;;;;;12.85;5.40;;;;;;;3.84;83.20;98969.95;1640770;87;21195;-69
2020/12/18 09:33:56;;;;;;;9.75;5.10;;;;;;;3.85;83.12;98963.07;1640413;87;21231;-69
2020/12/18 09:36:25;;;;;;;12.68;5.53;;;;;;;3.98;82.85;98966.67;1640614;87;21234;-69
2020/12/18 09:38:53;;;;;;;11.10;5.50;;;;;;;3.83;83.08;98961.41;1640834;87;21628;-69
2020/12/18 09:41:23;;;;;;;12.63;4.78;;;;;;;3.81;83.43;98963.69;1640960;87;21183;-69
2020/12/18 09:43:52;;;;;;;9.48;4.78;;;;;;;3.86;82.75;98964.27;1641221;86;21206;-69
2020/12/18 09:46:23;;;;;;;15.88;6.60;;;;;;;3.90;82.55;98958.06;1668289;86;21199;-69
2020/12/18 09:48:51;;;;;;;13.65;6.17;;;;;;;3.91;82.96;98959.73;1647315;86;21226;-68
2020/12/18 09:51:19;;;;;;;17.87;5.97;;;;;;;3.86;82.88;98953.98;1642064;87;21152;-68
2020/12/18 09:53:48;;;;;;;12.55;5.28;;;;;;;3.81;83.43;98963.69;1639811;87;21675;-69
2020/12/18 09:56:17;;;;;;;11.63;4.97;;;;;;;3.78;83.28;98954.37;1640102;87;21576;-70
2020/12/18 09:58:45;;;;;;;16.00;5.90;;;;;;;3.79;83.39;98959.05;1639781;87;21263;-69
2020/12/18 10:01:17;;;;;;;9.23;4.83;;;;;;;3.72;83.41;98961.11;1640257;87;21194;-69
2020/12/18 10:03:47;;;;;;;13.75;7.22;;;;;;;3.71;83.39;98962.01;1639474;87;21623;-69
2020/12/18 10:06:16;;;;;;;15.83;6.47;;;;;;;3.77;83.62;98961.69;1639404;87;21186;-69
2020/12/18 10:08:46;;;;;;;9.95;5.17;;;;;;;3.73;83.60;98962.78;1639332;87;21604;-69
2020/12/18 10:11:17;;;;;;;16.25;6.35;;;;;;;3.87;82.91;98967.67;1639513;87;21223;-69
2020/12/18 10:13:44;;;;;;;17.85;6.50;;;;;;;3.90;82.86;98959.34;1639472;87;21195;-70
2020/12/18 10:16:12;;;;;;;11.55;5.60;;;;;;;3.86;83.09;98963.42;1639380;87;21722;-70
2020/12/18 10:18:40;;;;;;;8.95;5.20;;;;;;;3.94;82.73;98958.73;1639220;87;21636;-70
2020/12/18 10:21:08;;;;;;;12.55;6.00;;;;;;;3.90;82.94;98967.51;1639321;87;21194;-70
2020/12/18 10:23:38;;;;;;;6.30;3.98;;;;;;;3.92;82.95;98956.72;1639171;87;21199;-71
2020/12/18 10:26:06;;;;;;;16.48;6.00;;;;;;;3.89;83.02;98956.39;1639463;87;21234;-71
2020/12/18 10:28:34;;;;;;;11.90;4.87;;;;;;;3.94;82.89;98956.16;1639306;87;21199;-70
2020/12/18 10:31:02;;;;;;;19.45;6.72;;;;;;;4.01;82.78;98957.55;1639363;87;21640;-70
2020/12/18 10:33:30;;;;;;;16.90;7.47;;;;;;;3.90;82.52;98957.23;1639363;87;21203;-70
2020/12/18 10:35:59;;;;;;;14.83;6.78;;;;;;;3.91;83.08;98957.61;1639402;87;21227;-71
2020/12/18 10:38:29;;;;;;;14.95;6.97;;;;;;;4.00;82.69;98963.14;1639342;87;21171;-70
2020/12/18 10:40:57;;;;;;;13.00;6.22;;;;;;;3.90;82.98;98958.52;1639234;87;21656;-70
2020/12/18 10:43:26;;;;;;;13.45;6.20;;;;;;;4.07;82.56;98961.08;1639437;87;22256;-71
2020/12/18 10:45:54;;;;;;;12.45;5.12;;;;;;;4.05;82.28;98961.59;1639402;87;21202;-71
2020/12/18 10:48:22;;;;;;;18.50;6.22;;;;;;;4.10;82.08;98957.89;1639395;87;21195;-71
2020/12/18 10:50:50;;;;;;;17.25;7.12;;;;;;;4.15;82.43;98960.23;1639349;87;21870;-71
2020/12/18 10:53:17;;;;;;;11.90;5.72;;;;;;;4.08;82.53;98953.30;1639421;87;21255;-71
2020/12/18 10:55:47;;;;;;;12.03;5.85;;;;;;;4.22;82.27;98953.86;1639367;87;21199;-70
2020/12/18 10:58:17;;;;;;;14.03;7.12;;;;;;;4.20;81.55;98953.92;1639510;87;21216;-72
2020/12/18 11:00:45;;;;;;;18.40;8.60;;;;;;;4.14;81.84;98952.97;1639366;87;21211;-71
2020/12/18 11:03:12;;;;;;;19.65;8.15;;;;;;;4.19;82.48;98954.02;1639420;87;21644;-71
2020/12/18 11:05:41;;;;;;;16.02;8.50;;;;;;;4.26;81.87;98944.63;1639532;87;21600;-71
2020/12/18 11:08:09;;;;;;;12.13;6.58;;;;;;;4.30;82.06;98951.73;1639458;87;21256;-71
2020/12/18 11:10:38;;;;;;;15.48;6.70;;;;;;;4.16;82.03;98950.33;1639415;87;21208;-71
2020/12/18 11:13:06;;;;;;;13.98;7.33;;;;;;;4.24;81.82;98950.77;1639300;87;21245;-70
2020/12/18 11:15:34;;;;;;;8.88;5.53;;;;;;;4.20;81.70;98946.22;1639389;87;21622;-71
2020/12/18 11:18:02;;;;;;;18.92;7.28;;;;;;;4.25;81.76;98945.98;1639357;87;21631;-70
2020/12/18 11:20:30;;;;;;;14.47;6.55;;;;;;;4.19;81.87;98944.58;1639624;87;21202;-71
2020/12/18 11:26:37;;;;;;;14.58;6.30;;;;;;;4.26;81.72;98942.06;1606091;89;21275;-71
2020/12/18 11:32:43;;;;;;;13.50;5.75;;;;;;;4.47;84.41;98949.11;1605823;89;21190;-71
2020/12/18 11:38:48;;;;;;;15.95;6.83;;;;;;;4.46;81.33;98953.04;1605793;89;21286;-71
2020/12/18 11:44:54;;;;;;;14.25;6.45;;;;;;;4.44;81.26;98952.27;1605840;89;21148;-71
2020/12/18 11:51:00;;;;;;;9.10;4.28;;;;;;;4.35;81.24;98956.63;1605876;89;21148;-71
2020/12/18 11:57:06;;;;;;;13.35;6.42;;;;;;;4.45;80.79;98947.52;1605791;89;21230;-72
2020/12/18 12:02:50;;;;;;;9.85;3.37;;;;;;;4.35;81.52;98940.75;1665822;86;21598;-70
2020/12/18 12:05:23;;;;;;;9.53;4.50;;;;;;;4.48;81.26;98940.92;1653482;87;21178;-72
2020/12/18 12:07:52;;;;;;;8.40;3.27;;;;;;;4.55;81.16;98942.28;1646528;87;21190;-72
2020/12/18 12:10:20;;;;;;;5.17;3.20;;;;;;;4.63;81.07;98947.36;1646806;87;21189;-71
2020/12/18 12:12:48;;;;;;;9.08;4.97;;;;;;;4.65;80.54;98943.44;1646793;87;21202;-71
2020/12/18 12:15:17;;;;;;;11.40;4.80;;;;;;;4.62;80.20;98943.16;1646676;87;21198;-70
2020/12/18 12:17:45;;;;;;;7.42;4.03;;;;;;;4.57;80.06;98942.56;1646808;86;21203;-71
2020/12/18 12:20:12;;;;;;;8.55;4.35;;;;;;;4.64;80.00;98943.89;1646660;87;21154;-72
2020/12/18 12:22:40;;;;;;;7.72;4.92;;;;;;;4.60;79.55;98942.39;1646637;87;21583;-71
2020/12/18 12:25:08;;;;;;;7.85;5.22;;;;;;;4.35;80.85;98944.61;1646796;86;21155;-71
2020/12/18 12:27:37;;;;;;;4.70;3.22;;;;;;;4.45;80.75;98941.92;1646611;87;21159;-71
2020/12/18 12:30:07;;;;;;;7.55;3.95;;;;;;;4.55;80.59;98946.14;1646613;87;21603;-71
2020/12/18 12:32:35;;;;;;;11.03;4.65;;;;;;;4.66;80.46;98954.11;1646606;87;21182;-71
2020/12/18 12:35:04;;;;;;;17.75;5.30;;;;;;;4.44;80.28;98945.39;1646656;87;21571;-71
2020/12/18 12:37:31;;;;;;;6.30;4.00;;;;;;;4.45;80.52;98945.78;1646786;86;21204;-71
2020/12/18 12:40:01;;;;;;;9.15;3.87;;;;;;;4.49;80.38;98945.99;1646406;87;21167;-71